sensor_id;sensor_type;location;lat;lon;timestamp;temperature;humidity
64874;HTU21D;51367;45.204;38.576;2023-08-06T00:00:22;25.37;55.92
64874;HTU21D;51367;45.204;38.576;2023-08-06T00:02:48;25.36;55.94
64874;HTU21D;51367;45.204;38.576;2023-08-06T00:05:15;25.32;56.00
64874;HTU21D;51367;45.204;38.576;2023-08-06T00:07:47;25.27;56.03
64874;HTU21D;51367;45.204;38.576;2023-08-06T00:10:13;25.24;56.10
64874;HTU21D;51367;45.204;38.576;2023-08-06T00:12:39;25.18;56.16
64874;HTU21D;51367;45.204;38.576;2023-08-06T00:15:05;25.12;56.35
64874;HTU21D;51367;45.204;38.576;2023-08-06T00:17:33;25.07;56.42
64874;HTU21D;51367;45.204;38.576;2023-08-06T00:19:59;25.02;56.57
64874;HTU21D;51367;45.204;38.576;2023-08-06T00:22:33;24.98;56.64
64874;HTU21D;51367;45.204;38.576;2023-08-06T00:25:00;24.92;56.68
64874;HTU21D;51367;45.204;38.576;2023-08-06T00:27:26;24.88;56.74
64874;HTU21D;51367;45.204;38.576;2023-08-06T00:29:52;24.84;56.88
64874;HTU21D;51367;45.204;38.576;2023-08-06T00:32:18;24.82;56.89
64874;HTU21D;51367;45.204;38.576;2023-08-06T00:34:44;24.77;56.96
64874;HTU21D;51367;45.204;38.576;2023-08-06T00:37:10;24.76;57.01
64874;HTU21D;51367;45.204;38.576;2023-08-06T00:39:37;24.71;57.10
64874;HTU21D;51367;45.204;38.576;2023-08-06T00:42:03;24.71;57.20
64874;HTU21D;51367;45.204;38.576;2023-08-06T00:44:29;24.68;57.24
64874;HTU21D;51367;45.204;38.576;2023-08-06T00:46:55;24.66;57.31
64874;HTU21D;51367;45.204;38.576;2023-08-06T00:49:21;24.64;57.36
64874;HTU21D;51367;45.204;38.576;2023-08-06T00:51:48;24.64;57.40
64874;HTU21D;51367;45.204;38.576;2023-08-06T00:54:15;24.63;57.46
64874;HTU21D;51367;45.204;38.576;2023-08-06T00:56:42;24.62;57.61
64874;HTU21D;51367;45.204;38.576;2023-08-06T00:59:10;24.63;57.68
64874;HTU21D;51367;45.204;38.576;2023-08-06T01:01:36;24.65;57.71
64874;HTU21D;51367;45.204;38.576;2023-08-06T01:04:02;24.65;57.67
64874;HTU21D;51367;45.204;38.576;2023-08-06T01:07:12;24.66;57.77
64874;HTU21D;51367;45.204;38.576;2023-08-06T01:12:44;24.71;57.71
64874;HTU21D;51367;45.204;38.576;2023-08-06T01:17:40;24.72;57.67
64874;HTU21D;51367;45.204;38.576;2023-08-06T01:20:07;24.72;57.73
64874;HTU21D;51367;45.204;38.576;2023-08-06T01:22:33;24.72;57.68
64874;HTU21D;51367;45.204;38.576;2023-08-06T01:24:59;24.70;57.70
64874;HTU21D;51367;45.204;38.576;2023-08-06T01:27:48;24.69;57.81
64874;HTU21D;51367;45.204;38.576;2023-08-06T01:30:27;24.65;57.83
64874;HTU21D;51367;45.204;38.576;2023-08-06T01:32:58;24.63;57.91
64874;HTU21D;51367;45.204;38.576;2023-08-06T01:35:30;24.59;57.93
64874;HTU21D;51367;45.204;38.576;2023-08-06T01:37:59;24.57;57.92
64874;HTU21D;51367;45.204;38.576;2023-08-06T01:40:25;24.56;58.02
64874;HTU21D;51367;45.204;38.576;2023-08-06T01:42:54;24.56;58.06
64874;HTU21D;51367;45.204;38.576;2023-08-06T01:45:20;24.54;58.12
64874;HTU21D;51367;45.204;38.576;2023-08-06T01:47:46;24.53;58.10
64874;HTU21D;51367;45.204;38.576;2023-08-06T01:50:12;24.53;58.11
64874;HTU21D;51367;45.204;38.576;2023-08-06T01:52:38;24.53;58.13
64874;HTU21D;51367;45.204;38.576;2023-08-06T01:55:04;24.51;58.19
64874;HTU21D;51367;45.204;38.576;2023-08-06T01:57:30;24.49;58.22
64874;HTU21D;51367;45.204;38.576;2023-08-06T01:59:57;24.48;58.26
64874;HTU21D;51367;45.204;38.576;2023-08-06T02:02:24;24.47;58.28
64874;HTU21D;51367;45.204;38.576;2023-08-06T02:04:50;24.43;58.38
64874;HTU21D;51367;45.204;38.576;2023-08-06T02:07:16;24.41;58.45
64874;HTU21D;51367;45.204;38.576;2023-08-06T02:09:41;24.39;58.55
64874;HTU21D;51367;45.204;38.576;2023-08-06T02:12:08;24.38;58.67
64874;HTU21D;51367;45.204;38.576;2023-08-06T02:14:34;24.36;58.80
64874;HTU21D;51367;45.204;38.576;2023-08-06T02:17:00;24.38;58.81
64874;HTU21D;51367;45.204;38.576;2023-08-06T02:19:26;24.36;58.82
64874;HTU21D;51367;45.204;38.576;2023-08-06T02:21:52;24.35;59.06
64874;HTU21D;51367;45.204;38.576;2023-08-06T02:24:18;24.36;59.13
64874;HTU21D;51367;45.204;38.576;2023-08-06T02:26:44;24.38;59.08
64874;HTU21D;51367;45.204;38.576;2023-08-06T02:29:12;24.39;59.23
64874;HTU21D;51367;45.204;38.576;2023-08-06T02:31:38;24.41;59.21
64874;HTU21D;51367;45.204;38.576;2023-08-06T02:34:05;24.42;59.37
64874;HTU21D;51367;45.204;38.576;2023-08-06T02:36:31;24.43;59.47
64874;HTU21D;51367;45.204;38.576;2023-08-06T02:38:58;24.45;59.38
64874;HTU21D;51367;45.204;38.576;2023-08-06T02:41:24;24.47;59.44
64874;HTU21D;51367;45.204;38.576;2023-08-06T02:43:52;24.49;59.38
64874;HTU21D;51367;45.204;38.576;2023-08-06T02:46:18;24.51;59.38
64874;HTU21D;51367;45.204;38.576;2023-08-06T02:48:44;24.55;59.37
64874;HTU21D;51367;45.204;38.576;2023-08-06T02:51:11;24.59;59.32
64874;HTU21D;51367;45.204;38.576;2023-08-06T02:53:37;24.62;59.32
64874;HTU21D;51367;45.204;38.576;2023-08-06T02:56:07;24.68;59.35
64874;HTU21D;51367;45.204;38.576;2023-08-06T02:58:48;24.73;59.25
64874;HTU21D;51367;45.204;38.576;2023-08-06T03:01:26;24.77;59.30
64874;HTU21D;51367;45.204;38.576;2023-08-06T03:03:57;24.83;59.35
64874;HTU21D;51367;45.204;38.576;2023-08-06T03:06:29;24.89;59.35
64874;HTU21D;51367;45.204;38.576;2023-08-06T03:08:58;24.95;59.38
64874;HTU21D;51367;45.204;38.576;2023-08-06T03:11:25;25.01;59.41
64874;HTU21D;51367;45.204;38.576;2023-08-06T03:13:55;25.06;59.32
64874;HTU21D;51367;45.204;38.576;2023-08-06T03:16:21;25.14;59.42
64874;HTU21D;51367;45.204;38.576;2023-08-06T03:18:48;25.18;59.48
64874;HTU21D;51367;45.204;38.576;2023-08-06T03:21:14;25.24;59.47
64874;HTU21D;51367;45.204;38.576;2023-08-06T03:23:40;25.32;59.44
64874;HTU21D;51367;45.204;38.576;2023-08-06T03:26:06;25.39;59.38
64874;HTU21D;51367;45.204;38.576;2023-08-06T03:28:32;25.47;59.35
64874;HTU21D;51367;45.204;38.576;2023-08-06T03:31:01;25.57;59.19
64874;HTU21D;51367;45.204;38.576;2023-08-06T03:33:32;25.66;59.17
64874;HTU21D;51367;45.204;38.576;2023-08-06T03:35:59;25.73;59.08
64874;HTU21D;51367;45.204;38.576;2023-08-06T03:38:25;25.79;58.99
64874;HTU21D;51367;45.204;38.576;2023-08-06T03:40:54;25.89;58.90
64874;HTU21D;51367;45.204;38.576;2023-08-06T03:43:20;26.02;58.87
64874;HTU21D;51367;45.204;38.576;2023-08-06T03:45:47;26.16;58.69
64874;HTU21D;51367;45.204;38.576;2023-08-06T03:48:13;26.31;58.44
64874;HTU21D;51367;45.204;38.576;2023-08-06T03:50:39;26.42;58.26
64874;HTU21D;51367;45.204;38.576;2023-08-06T03:53:10;26.56;58.04
64874;HTU21D;51367;45.204;38.576;2023-08-06T03:55:37;26.71;57.87
64874;HTU21D;51367;45.204;38.576;2023-08-06T03:58:03;26.82;57.75
64874;HTU21D;51367;45.204;38.576;2023-08-06T04:00:29;26.93;57.63
64874;HTU21D;51367;45.204;38.576;2023-08-06T04:02:56;27.02;57.49
64874;HTU21D;51367;45.204;38.576;2023-08-06T04:05:22;27.12;57.23
64874;HTU21D;51367;45.204;38.576;2023-08-06T04:07:48;27.22;57.07
64874;HTU21D;51367;45.204;38.576;2023-08-06T04:10:14;27.29;56.90
64874;HTU21D;51367;45.204;38.576;2023-08-06T04:12:40;27.34;56.72
64874;HTU21D;51367;45.204;38.576;2023-08-06T04:15:07;27.32;56.66
64874;HTU21D;51367;45.204;38.576;2023-08-06T04:17:33;27.29;56.74
64874;HTU21D;51367;45.204;38.576;2023-08-06T04:19:59;27.27;56.81
64874;HTU21D;51367;45.204;38.576;2023-08-06T04:22:25;27.30;56.93
64874;HTU21D;51367;45.204;38.576;2023-08-06T04:24:51;27.34;56.92
64874;HTU21D;51367;45.204;38.576;2023-08-06T04:27:18;27.38;57.03
64874;HTU21D;51367;45.204;38.576;2023-08-06T04:29:45;27.43;57.04
64874;HTU21D;51367;45.204;38.576;2023-08-06T04:32:13;27.49;57.00
64874;HTU21D;51367;45.204;38.576;2023-08-06T04:34:44;27.56;56.79
64874;HTU21D;51367;45.204;38.576;2023-08-06T04:37:10;27.63;56.58
64874;HTU21D;51367;45.204;38.576;2023-08-06T04:39:37;27.67;56.41
64874;HTU21D;51367;45.204;38.576;2023-08-06T04:42:04;27.74;56.33
64874;HTU21D;51367;45.204;38.576;2023-08-06T04:44:31;27.83;56.14
64874;HTU21D;51367;45.204;38.576;2023-08-06T04:46:57;27.88;56.10
64874;HTU21D;51367;45.204;38.576;2023-08-06T04:49:23;27.97;56.07
64874;HTU21D;51367;45.204;38.576;2023-08-06T04:51:49;28.06;55.94
64874;HTU21D;51367;45.204;38.576;2023-08-06T04:54:15;28.17;55.67
64874;HTU21D;51367;45.204;38.576;2023-08-06T04:56:41;28.25;55.50
64874;HTU21D;51367;45.204;38.576;2023-08-06T04:59:07;28.32;55.33
64874;HTU21D;51367;45.204;38.576;2023-08-06T05:01:33;28.41;55.06
64874;HTU21D;51367;45.204;38.576;2023-08-06T05:03:59;28.46;54.95
64874;HTU21D;51367;45.204;38.576;2023-08-06T05:06:25;28.54;54.77
64874;HTU21D;51367;45.204;38.576;2023-08-06T05:08:51;28.58;54.70
64874;HTU21D;51367;45.204;38.576;2023-08-06T05:11:17;28.63;54.52
64874;HTU21D;51367;45.204;38.576;2023-08-06T05:13:43;28.71;54.47
64874;HTU21D;51367;45.204;38.576;2023-08-06T05:16:09;28.78;54.27
64874;HTU21D;51367;45.204;38.576;2023-08-06T05:18:35;28.84;54.15
64874;HTU21D;51367;45.204;38.576;2023-08-06T05:21:03;28.90;53.96
64874;HTU21D;51367;45.204;38.576;2023-08-06T05:23:29;28.97;53.84
64874;HTU21D;51367;45.204;38.576;2023-08-06T05:25:55;29.05;53.72
64874;HTU21D;51367;45.204;38.576;2023-08-06T05:28:21;29.14;53.52
64874;HTU21D;51367;45.204;38.576;2023-08-06T05:30:47;29.21;53.30
64874;HTU21D;51367;45.204;38.576;2023-08-06T05:33:13;29.28;52.96
64874;HTU21D;51367;45.204;38.576;2023-08-06T05:35:41;29.36;52.73
64874;HTU21D;51367;45.204;38.576;2023-08-06T05:38:07;29.44;52.81
64874;HTU21D;51367;45.204;38.576;2023-08-06T05:40:34;29.56;52.65
64874;HTU21D;51367;45.204;38.576;2023-08-06T05:43:00;29.66;52.24
64874;HTU21D;51367;45.204;38.576;2023-08-06T05:45:26;29.77;52.04
64874;HTU21D;51367;45.204;38.576;2023-08-06T05:47:52;29.90;52.06
64874;HTU21D;51367;45.204;38.576;2023-08-06T05:50:20;30.05;51.77
64874;HTU21D;51367;45.204;38.576;2023-08-06T05:52:46;30.17;50.96
64874;HTU21D;51367;45.204;38.576;2023-08-06T05:55:12;30.27;50.65
64874;HTU21D;51367;45.204;38.576;2023-08-06T05:57:38;30.38;50.24
64874;HTU21D;51367;45.204;38.576;2023-08-06T06:00:04;30.48;49.93
64874;HTU21D;51367;45.204;38.576;2023-08-06T06:02:38;30.64;50.07
64874;HTU21D;51367;45.204;38.576;2023-08-06T06:05:04;30.82;50.19
64874;HTU21D;51367;45.204;38.576;2023-08-06T06:07:30;31.01;48.47
64874;HTU21D;51367;45.204;38.576;2023-08-06T06:09:56;31.22;47.31
64874;HTU21D;51367;45.204;38.576;2023-08-06T06:12:22;31.45;46.38
64874;HTU21D;51367;45.204;38.576;2023-08-06T06:14:48;31.63;45.06
64874;HTU21D;51367;45.204;38.576;2023-08-06T06:17:14;31.78;45.34
64874;HTU21D;51367;45.204;38.576;2023-08-06T06:19:40;32.01;44.48
64874;HTU21D;51367;45.204;38.576;2023-08-06T06:22:06;32.19;43.46
64874;HTU21D;51367;45.204;38.576;2023-08-06T06:24:32;32.32;43.43
64874;HTU21D;51367;45.204;38.576;2023-08-06T06:26:58;32.42;42.37
64874;HTU21D;51367;45.204;38.576;2023-08-06T06:29:24;32.43;42.23
64874;HTU21D;51367;45.204;38.576;2023-08-06T06:31:50;32.43;41.67
64874;HTU21D;51367;45.204;38.576;2023-08-06T06:34:16;32.43;41.62
64874;HTU21D;51367;45.204;38.576;2023-08-06T06:36:42;32.42;41.41
64874;HTU21D;51367;45.204;38.576;2023-08-06T06:39:08;32.45;41.52
64874;HTU21D;51367;45.204;38.576;2023-08-06T06:41:34;32.48;41.04
64874;HTU21D;51367;45.204;38.576;2023-08-06T06:44:09;32.49;40.48
64874;HTU21D;51367;45.204;38.576;2023-08-06T06:46:35;32.49;40.52
64874;HTU21D;51367;45.204;38.576;2023-08-06T06:49:01;32.52;40.67
64874;HTU21D;51367;45.204;38.576;2023-08-06T06:51:27;32.56;40.44
64874;HTU21D;51367;45.204;38.576;2023-08-06T06:53:53;32.59;40.03
64874;HTU21D;51367;45.204;38.576;2023-08-06T06:56:19;32.63;40.22
64874;HTU21D;51367;45.204;38.576;2023-08-06T06:58:45;32.70;40.16
64874;HTU21D;51367;45.204;38.576;2023-08-06T07:01:11;32.81;40.47
64874;HTU21D;51367;45.204;38.576;2023-08-06T07:03:37;32.91;39.88
64874;HTU21D;51367;45.204;38.576;2023-08-06T07:06:04;32.96;39.57
64874;HTU21D;51367;45.204;38.576;2023-08-06T07:08:31;32.99;40.02
64874;HTU21D;51367;45.204;38.576;2023-08-06T07:11:04;33.08;39.74
64874;HTU21D;51367;45.204;38.576;2023-08-06T07:13:30;33.12;39.58
64874;HTU21D;51367;45.204;38.576;2023-08-06T07:15:57;33.20;39.79
64874;HTU21D;51367;45.204;38.576;2023-08-06T07:18:23;33.31;39.79
64874;HTU21D;51367;45.204;38.576;2023-08-06T07:20:50;33.45;39.56
64874;HTU21D;51367;45.204;38.576;2023-08-06T07:23:18;33.52;39.46
64874;HTU21D;51367;45.204;38.576;2023-08-06T07:25:44;33.59;39.33
64874;HTU21D;51367;45.204;38.576;2023-08-06T07:28:11;33.68;38.55
64874;HTU21D;51367;45.204;38.576;2023-08-06T07:30:41;33.72;38.87
64874;HTU21D;51367;45.204;38.576;2023-08-06T07:33:07;33.80;38.65
64874;HTU21D;51367;45.204;38.576;2023-08-06T07:35:34;33.88;38.59
64874;HTU21D;51367;45.204;38.576;2023-08-06T07:38:00;33.95;38.38
64874;HTU21D;51367;45.204;38.576;2023-08-06T07:40:27;34.05;38.26
64874;HTU21D;51367;45.204;38.576;2023-08-06T07:42:53;34.17;38.03
64874;HTU21D;51367;45.204;38.576;2023-08-06T07:45:19;34.23;37.59
64874;HTU21D;51367;45.204;38.576;2023-08-06T07:47:45;34.33;37.24
64874;HTU21D;51367;45.204;38.576;2023-08-06T07:50:11;34.41;37.28
64874;HTU21D;51367;45.204;38.576;2023-08-06T07:52:38;34.51;37.37
64874;HTU21D;51367;45.204;38.576;2023-08-06T07:55:04;34.62;37.54
64874;HTU21D;51367;45.204;38.576;2023-08-06T07:57:31;34.77;37.85
64874;HTU21D;51367;45.204;38.576;2023-08-06T07:59:57;34.98;37.61
64874;HTU21D;51367;45.204;38.576;2023-08-06T08:02:24;35.12;37.17
64874;HTU21D;51367;45.204;38.576;2023-08-06T08:04:50;35.20;36.57
64874;HTU21D;51367;45.204;38.576;2023-08-06T08:07:16;35.20;36.69
64874;HTU21D;51367;45.204;38.576;2023-08-06T08:09:42;35.21;36.42
64874;HTU21D;51367;45.204;38.576;2023-08-06T08:12:08;35.15;36.18
64874;HTU21D;51367;45.204;38.576;2023-08-06T08:14:34;35.08;36.30
64874;HTU21D;51367;45.204;38.576;2023-08-06T08:17:05;34.99;36.43
64874;HTU21D;51367;45.204;38.576;2023-08-06T08:19:34;34.94;36.14
64874;HTU21D;51367;45.204;38.576;2023-08-06T08:22:00;34.89;36.39
64874;HTU21D;51367;45.204;38.576;2023-08-06T08:24:26;34.85;36.49
64874;HTU21D;51367;45.204;38.576;2023-08-06T08:26:52;34.83;36.62
64874;HTU21D;51367;45.204;38.576;2023-08-06T08:29:19;34.83;36.44
64874;HTU21D;51367;45.204;38.576;2023-08-06T08:31:46;34.80;36.74
64874;HTU21D;51367;45.204;38.576;2023-08-06T08:34:15;34.82;37.04
64874;HTU21D;51367;45.204;38.576;2023-08-06T08:36:41;34.90;37.21
64874;HTU21D;51367;45.204;38.576;2023-08-06T08:39:08;34.98;37.01
64874;HTU21D;51367;45.204;38.576;2023-08-06T08:41:36;35.06;37.17
64874;HTU21D;51367;45.204;38.576;2023-08-06T08:44:03;35.18;36.59
64874;HTU21D;51367;45.204;38.576;2023-08-06T08:46:31;35.18;36.62
64874;HTU21D;51367;45.204;38.576;2023-08-06T08:48:59;35.22;36.86
64874;HTU21D;51367;45.204;38.576;2023-08-06T08:51:27;35.27;36.77
64874;HTU21D;51367;45.204;38.576;2023-08-06T08:53:53;35.30;36.44
64874;HTU21D;51367;45.204;38.576;2023-08-06T08:56:22;35.30;36.42
64874;HTU21D;51367;45.204;38.576;2023-08-06T08:58:48;35.31;36.50
64874;HTU21D;51367;45.204;38.576;2023-08-06T09:01:15;35.35;36.40
64874;HTU21D;51367;45.204;38.576;2023-08-06T09:03:43;35.37;36.38
64874;HTU21D;51367;45.204;38.576;2023-08-06T09:06:11;35.41;36.26
64874;HTU21D;51367;45.204;38.576;2023-08-06T09:08:51;35.48;36.48
64874;HTU21D;51367;45.204;38.576;2023-08-06T09:11:20;35.55;36.05
64874;HTU21D;51367;45.204;38.576;2023-08-06T09:13:47;35.59;36.22
64874;HTU21D;51367;45.204;38.576;2023-08-06T09:16:13;35.66;36.27
64874;HTU21D;51367;45.204;38.576;2023-08-06T09:18:39;35.77;36.08
64874;HTU21D;51367;45.204;38.576;2023-08-06T09:21:13;35.84;35.70
64874;HTU21D;51367;45.204;38.576;2023-08-06T09:23:40;35.86;35.59
64874;HTU21D;51367;45.204;38.576;2023-08-06T09:26:06;35.90;35.67
64874;HTU21D;51367;45.204;38.576;2023-08-06T09:28:38;35.95;35.28
64874;HTU21D;51367;45.204;38.576;2023-08-06T09:31:05;35.95;34.88
64874;HTU21D;51367;45.204;38.576;2023-08-06T09:33:31;35.94;34.86
64874;HTU21D;51367;45.204;38.576;2023-08-06T09:35:57;35.96;35.19
64874;HTU21D;51367;45.204;38.576;2023-08-06T09:38:24;36.07;35.02
64874;HTU21D;51367;45.204;38.576;2023-08-06T09:40:50;36.16;34.95
64874;HTU21D;51367;45.204;38.576;2023-08-06T09:43:19;36.28;34.55
64874;HTU21D;51367;45.204;38.576;2023-08-06T09:45:45;36.34;34.44
64874;HTU21D;51367;45.204;38.576;2023-08-06T09:48:11;36.40;34.29
64874;HTU21D;51367;45.204;38.576;2023-08-06T09:50:38;36.46;33.99
64874;HTU21D;51367;45.204;38.576;2023-08-06T09:53:06;36.51;33.86
64874;HTU21D;51367;45.204;38.576;2023-08-06T09:55:33;36.54;34.01
64874;HTU21D;51367;45.204;38.576;2023-08-06T09:58:00;36.63;33.96
64874;HTU21D;51367;45.204;38.576;2023-08-06T10:00:27;36.72;33.40
64874;HTU21D;51367;45.204;38.576;2023-08-06T10:02:54;36.77;33.53
64874;HTU21D;51367;45.204;38.576;2023-08-06T10:05:22;36.86;33.27
64874;HTU21D;51367;45.204;38.576;2023-08-06T10:07:50;36.87;32.95
64874;HTU21D;51367;45.204;38.576;2023-08-06T10:10:19;36.93;33.16
64874;HTU21D;51367;45.204;38.576;2023-08-06T10:12:52;37.02;33.13
64874;HTU21D;51367;45.204;38.576;2023-08-06T10:15:30;37.11;32.47
64874;HTU21D;51367;45.204;38.576;2023-08-06T10:17:58;37.16;32.71
64874;HTU21D;51367;45.204;38.576;2023-08-06T10:20:25;37.22;32.44
64874;HTU21D;51367;45.204;38.576;2023-08-06T10:23:04;37.30;32.65
64874;HTU21D;51367;45.204;38.576;2023-08-06T10:25:32;37.35;32.37
64874;HTU21D;51367;45.204;38.576;2023-08-06T10:27:59;37.41;32.25
64874;HTU21D;51367;45.204;38.576;2023-08-06T10:30:33;37.45;31.86
64874;HTU21D;51367;45.204;38.576;2023-08-06T10:33:01;37.46;31.96
64874;HTU21D;51367;45.204;38.576;2023-08-06T10:35:43;37.50;31.90
64874;HTU21D;51367;45.204;38.576;2023-08-06T10:38:16;37.54;31.87
64874;HTU21D;51367;45.204;38.576;2023-08-06T10:41:03;37.58;31.50
64874;HTU21D;51367;45.204;38.576;2023-08-06T10:43:33;37.61;31.76
64874;HTU21D;51367;45.204;38.576;2023-08-06T10:46:01;37.67;31.65
64874;HTU21D;51367;45.204;38.576;2023-08-06T10:48:37;37.77;31.65
64874;HTU21D;51367;45.204;38.576;2023-08-06T10:51:09;37.81;31.19
64874;HTU21D;51367;45.204;38.576;2023-08-06T10:53:35;37.86;30.99
64874;HTU21D;51367;45.204;38.576;2023-08-06T10:56:02;37.86;31.25
64874;HTU21D;51367;45.204;38.576;2023-08-06T10:58:37;37.89;31.26
64874;HTU21D;51367;45.204;38.576;2023-08-06T11:01:03;37.92;31.03
64874;HTU21D;51367;45.204;38.576;2023-08-06T11:03:29;37.93;30.56
64874;HTU21D;51367;45.204;38.576;2023-08-06T11:05:56;37.92;30.87
64874;HTU21D;51367;45.204;38.576;2023-08-06T11:08:29;37.93;30.59
64874;HTU21D;51367;45.204;38.576;2023-08-06T11:10:55;37.92;30.62
64874;HTU21D;51367;45.204;38.576;2023-08-06T11:13:33;37.99;30.84
64874;HTU21D;51367;45.204;38.576;2023-08-06T11:15:59;38.03;30.74
64874;HTU21D;51367;45.204;38.576;2023-08-06T11:18:25;38.08;30.59
64874;HTU21D;51367;45.204;38.576;2023-08-06T11:20:51;38.14;30.52
64874;HTU21D;51367;45.204;38.576;2023-08-06T11:23:17;38.18;30.78
64874;HTU21D;51367;45.204;38.576;2023-08-06T11:25:44;38.22;30.19
64874;HTU21D;51367;45.204;38.576;2023-08-06T11:28:12;38.21;30.16
64874;HTU21D;51367;45.204;38.576;2023-08-06T11:30:38;38.22;30.32
64874;HTU21D;51367;45.204;38.576;2023-08-06T11:33:07;38.23;30.32
64874;HTU21D;51367;45.204;38.576;2023-08-06T11:35:36;38.28;30.36
64874;HTU21D;51367;45.204;38.576;2023-08-06T11:38:02;38.31;30.09
64874;HTU21D;51367;45.204;38.576;2023-08-06T11:40:28;38.31;30.27
64874;HTU21D;51367;45.204;38.576;2023-08-06T11:42:54;38.32;30.15
64874;HTU21D;51367;45.204;38.576;2023-08-06T11:45:24;38.32;29.85
64874;HTU21D;51367;45.204;38.576;2023-08-06T11:47:51;38.32;29.99
64874;HTU21D;51367;45.204;38.576;2023-08-06T11:50:25;38.34;30.06
64874;HTU21D;51367;45.204;38.576;2023-08-06T11:52:58;38.35;29.92
64874;HTU21D;51367;45.204;38.576;2023-08-06T11:55:26;38.35;30.07
64874;HTU21D;51367;45.204;38.576;2023-08-06T11:57:54;38.41;30.37
64874;HTU21D;51367;45.204;38.576;2023-08-06T12:00:23;38.51;30.28
64874;HTU21D;51367;45.204;38.576;2023-08-06T12:02:50;38.55;29.61
64874;HTU21D;51367;45.204;38.576;2023-08-06T12:05:30;38.54;29.62
64874;HTU21D;51367;45.204;38.576;2023-08-06T12:07:58;38.52;29.64
64874;HTU21D;51367;45.204;38.576;2023-08-06T12:10:26;38.50;29.58
64874;HTU21D;51367;45.204;38.576;2023-08-06T12:12:53;38.50;29.42
64874;HTU21D;51367;45.204;38.576;2023-08-06T12:15:19;38.47;29.58
64874;HTU21D;51367;45.204;38.576;2023-08-06T12:17:45;38.45;29.68
64874;HTU21D;51367;45.204;38.576;2023-08-06T12:20:12;38.48;29.72
64874;HTU21D;51367;45.204;38.576;2023-08-06T12:22:38;38.51;29.81
64874;HTU21D;51367;45.204;38.576;2023-08-06T12:25:10;38.52;29.29
64874;HTU21D;51367;45.204;38.576;2023-08-06T12:27:39;38.51;29.55
64874;HTU21D;51367;45.204;38.576;2023-08-06T12:30:06;38.58;29.93
64874;HTU21D;51367;45.204;38.576;2023-08-06T12:32:34;38.66;29.80
64874;HTU21D;51367;45.204;38.576;2023-08-06T12:35:00;38.71;29.58
64874;HTU21D;51367;45.204;38.576;2023-08-06T12:37:26;38.74;29.84
64874;HTU21D;51367;45.204;38.576;2023-08-06T12:39:53;38.77;29.85
64874;HTU21D;51367;45.204;38.576;2023-08-06T12:42:19;38.78;29.80
64874;HTU21D;51367;45.204;38.576;2023-08-06T12:44:45;38.78;29.66
64874;HTU21D;51367;45.204;38.576;2023-08-06T12:47:11;38.77;29.65
64874;HTU21D;51367;45.204;38.576;2023-08-06T12:49:37;38.77;29.88
64874;HTU21D;51367;45.204;38.576;2023-08-06T12:52:03;38.79;30.11
64874;HTU21D;51367;45.204;38.576;2023-08-06T12:54:32;38.81;29.98
64874;HTU21D;51367;45.204;38.576;2023-08-06T12:57:02;38.82;29.61
64874;HTU21D;51367;45.204;38.576;2023-08-06T12:59:28;38.80;29.46
64874;HTU21D;51367;45.204;38.576;2023-08-06T13:01:54;38.75;29.53
64874;HTU21D;51367;45.204;38.576;2023-08-06T13:04:21;38.74;29.67
64874;HTU21D;51367;45.204;38.576;2023-08-06T13:06:47;38.74;29.75
64874;HTU21D;51367;45.204;38.576;2023-08-06T13:09:13;38.76;29.65
64874;HTU21D;51367;45.204;38.576;2023-08-06T13:11:40;38.75;29.76
64874;HTU21D;51367;45.204;38.576;2023-08-06T13:14:07;38.76;30.03
64874;HTU21D;51367;45.204;38.576;2023-08-06T13:16:34;38.78;29.70
64874;HTU21D;51367;45.204;38.576;2023-08-06T13:19:01;38.78;29.66
64874;HTU21D;51367;45.204;38.576;2023-08-06T13:21:33;38.76;29.71
64874;HTU21D;51367;45.204;38.576;2023-08-06T13:24:03;38.73;29.64
64874;HTU21D;51367;45.204;38.576;2023-08-06T13:26:30;38.69;29.33
64874;HTU21D;51367;45.204;38.576;2023-08-06T13:29:00;38.68;29.47
64874;HTU21D;51367;45.204;38.576;2023-08-06T13:31:26;38.66;29.41
64874;HTU21D;51367;45.204;38.576;2023-08-06T13:33:54;38.64;29.37
64874;HTU21D;51367;45.204;38.576;2023-08-06T13:36:22;38.64;29.16
64874;HTU21D;51367;45.204;38.576;2023-08-06T13:38:48;38.60;29.16
64874;HTU21D;51367;45.204;38.576;2023-08-06T13:41:15;38.58;29.48
64874;HTU21D;51367;45.204;38.576;2023-08-06T13:43:42;38.59;29.65
64874;HTU21D;51367;45.204;38.576;2023-08-06T13:46:08;38.58;29.65
64874;HTU21D;51367;45.204;38.576;2023-08-06T13:48:35;38.59;29.64
64874;HTU21D;51367;45.204;38.576;2023-08-06T13:51:01;38.55;29.39
64874;HTU21D;51367;45.204;38.576;2023-08-06T13:53:27;38.51;29.39
64874;HTU21D;51367;45.204;38.576;2023-08-06T13:55:56;38.49;29.45
64874;HTU21D;51367;45.204;38.576;2023-08-06T13:58:23;38.47;29.71
64874;HTU21D;51367;45.204;38.576;2023-08-06T14:00:49;38.48;29.37
64874;HTU21D;51367;45.204;38.576;2023-08-06T14:03:18;38.44;29.31
64874;HTU21D;51367;45.204;38.576;2023-08-06T14:05:45;38.40;29.32
64874;HTU21D;51367;45.204;38.576;2023-08-06T14:08:11;38.36;29.53
64874;HTU21D;51367;45.204;38.576;2023-08-06T14:10:37;38.35;29.67
64874;HTU21D;51367;45.204;38.576;2023-08-06T14:13:03;38.31;29.66
64874;HTU21D;51367;45.204;38.576;2023-08-06T14:15:29;38.30;29.80
64874;HTU21D;51367;45.204;38.576;2023-08-06T14:17:55;38.30;29.95
64874;HTU21D;51367;45.204;38.576;2023-08-06T14:20:21;38.29;30.10
64874;HTU21D;51367;45.204;38.576;2023-08-06T14:22:47;38.29;30.34
64874;HTU21D;51367;45.204;38.576;2023-08-06T14:25:13;38.26;30.24
64874;HTU21D;51367;45.204;38.576;2023-08-06T14:27:39;38.24;30.16
64874;HTU21D;51367;45.204;38.576;2023-08-06T14:30:06;38.21;30.16
64874;HTU21D;51367;45.204;38.576;2023-08-06T14:32:33;38.19;30.22
64874;HTU21D;51367;45.204;38.576;2023-08-06T14:34:59;38.12;30.39
64874;HTU21D;51367;45.204;38.576;2023-08-06T14:37:25;38.09;30.33
64874;HTU21D;51367;45.204;38.576;2023-08-06T14:39:51;38.06;30.38
64874;HTU21D;51367;45.204;38.576;2023-08-06T14:42:17;38.03;30.42
64874;HTU21D;51367;45.204;38.576;2023-08-06T14:44:43;37.99;30.35
64874;HTU21D;51367;45.204;38.576;2023-08-06T14:47:09;37.94;30.35
64874;HTU21D;51367;45.204;38.576;2023-08-06T14:49:35;37.89;30.54
64874;HTU21D;51367;45.204;38.576;2023-08-06T14:52:03;37.84;30.64
64874;HTU21D;51367;45.204;38.576;2023-08-06T14:54:29;37.80;30.70
64874;HTU21D;51367;45.204;38.576;2023-08-06T14:56:56;37.75;30.63
64874;HTU21D;51367;45.204;38.576;2023-08-06T14:59:22;37.67;30.88
64874;HTU21D;51367;45.204;38.576;2023-08-06T15:01:48;37.63;30.96
64874;HTU21D;51367;45.204;38.576;2023-08-06T15:04:15;37.59;30.96
64874;HTU21D;51367;45.204;38.576;2023-08-06T15:06:41;37.57;31.13
64874;HTU21D;51367;45.204;38.576;2023-08-06T15:09:07;37.50;31.19